sensor_id;sensor_type;location;lat;lon;timestamp;P1;durP1;ratioP1;P2;durP2;ratioP2
22837;SDS011;11585;51.450;-0.240;2023-07-31T00:10:46;21.80;;;6.13;;
22837;SDS011;11585;51.450;-0.240;2023-07-31T01:04:06;5.05;;;2.05;;
22837;SDS011;11585;51.450;-0.240;2023-07-31T01:09:48;6.32;;;1.52;;
22837;SDS011;11585;51.450;-0.240;2023-07-31T01:16:09;3.42;;;1.38;;
22837;SDS011;11585;51.450;-0.240;2023-07-31T01:49:58;3.97;;;1.30;;
22837;SDS011;11585;51.450;-0.240;2023-07-31T02:05:03;4.43;;;1.88;;
22837;SDS011;11585;51.450;-0.240;2023-07-31T02:09:55;2.60;;;2.00;;
22837;SDS011;11585;51.450;-0.240;2023-07-31T02:12:21;5.28;;;2.13;;
22837;SDS011;11585;51.450;-0.240;2023-07-31T02:21:41;4.43;;;2.33;;
22837;SDS011;11585;51.450;-0.240;2023-07-31T02:24:06;2.97;;;2.05;;
22837;SDS011;11585;51.450;-0.240;2023-07-31T02:29:54;4.15;;;2.38;;
22837;SDS011;11585;51.450;-0.240;2023-07-31T02:37:51;5.20;;;2.40;;
22837;SDS011;11585;51.450;-0.240;2023-07-31T02:40:17;7.57;;;2.85;;
22837;SDS011;11585;51.450;-0.240;2023-07-31T02:42:43;4.25;;;2.40;;
22837;SDS011;11585;51.450;-0.240;2023-07-31T02:45:10;4.63;;;2.28;;
22837;SDS011;11585;51.450;-0.240;2023-07-31T02:47:35;10.50;;;3.20;;
22837;SDS011;11585;51.450;-0.240;2023-07-31T02:50:04;4.78;;;2.60;;
22837;SDS011;11585;51.450;-0.240;2023-07-31T02:52:30;6.38;;;2.65;;
22837;SDS011;11585;51.450;-0.240;2023-07-31T03:01:40;8.13;;;2.42;;
22837;SDS011;11585;51.450;-0.240;2023-07-31T03:04:06;10.45;;;3.00;;
22837;SDS011;11585;51.450;-0.240;2023-07-31T03:09:35;8.98;;;2.33;;
22837;SDS011;11585;51.450;-0.240;2023-07-31T03:12:01;5.88;;;2.33;;
22837;SDS011;11585;51.450;-0.240;2023-07-31T03:14:26;6.47;;;2.15;;
22837;SDS011;11585;51.450;-0.240;2023-07-31T03:23:17;7.53;;;1.70;;
22837;SDS011;11585;51.450;-0.240;2023-07-31T03:32:27;2.65;;;1.52;;
22837;SDS011;11585;51.450;-0.240;2023-07-31T03:41:52;6.28;;;1.48;;
22837;SDS011;11585;51.450;-0.240;2023-07-31T03:44:18;3.25;;;1.30;;
22837;SDS011;11585;51.450;-0.240;2023-07-31T03:46:45;2.38;;;1.50;;
22837;SDS011;11585;51.450;-0.240;2023-07-31T03:49:11;5.45;;;1.77;;
22837;SDS011;11585;51.450;-0.240;2023-07-31T03:51:37;4.35;;;1.30;;
22837;SDS011;11585;51.450;-0.240;2023-07-31T03:54:02;3.38;;;1.50;;
22837;SDS011;11585;51.450;-0.240;2023-07-31T03:58:59;3.35;;;1.40;;
22837;SDS011;11585;51.450;-0.240;2023-07-31T04:01:25;8.10;;;1.65;;
22837;SDS011;11585;51.450;-0.240;2023-07-31T04:03:51;3.05;;;1.10;;
22837;SDS011;11585;51.450;-0.240;2023-07-31T04:09:21;4.00;;;1.30;;
22837;SDS011;11585;51.450;-0.240;2023-07-31T04:11:46;5.50;;;1.30;;
22837;SDS011;11585;51.450;-0.240;2023-07-31T04:14:12;2.20;;;1.30;;
22837;SDS011;11585;51.450;-0.240;2023-07-31T04:19:24;4.82;;;1.33;;
22837;SDS011;11585;51.450;-0.240;2023-07-31T04:21:50;5.07;;;1.30;;
22837;SDS011;11585;51.450;-0.240;2023-07-31T04:24:15;2.92;;;1.13;;
22837;SDS011;11585;51.450;-0.240;2023-07-31T04:30:09;4.78;;;1.10;;
22837;SDS011;11585;51.450;-0.240;2023-07-31T04:32:34;2.85;;;1.10;;
22837;SDS011;11585;51.450;-0.240;2023-07-31T04:38:08;7.82;;;1.20;;
22837;SDS011;11585;51.450;-0.240;2023-07-31T04:40:36;4.68;;;1.10;;
22837;SDS011;11585;51.450;-0.240;2023-07-31T04:43:01;3.15;;;1.00;;
22837;SDS011;11585;51.450;-0.240;2023-07-31T04:48:13;3.80;;;0.95;;
22837;SDS011;11585;51.450;-0.240;2023-07-31T04:50:39;4.68;;;1.30;;
22837;SDS011;11585;51.450;-0.240;2023-07-31T04:53:05;5.97;;;1.23;;
22837;SDS011;11585;51.450;-0.240;2023-07-31T04:58:55;2.78;;;1.10;;
22837;SDS011;11585;51.450;-0.240;2023-07-31T05:01:21;4.60;;;1.13;;
22837;SDS011;11585;51.450;-0.240;2023-07-31T05:03:49;3.28;;;1.00;;
22837;SDS011;11585;51.450;-0.240;2023-07-31T05:10:09;4.00;;;1.42;;
22837;SDS011;11585;51.450;-0.240;2023-07-31T05:12:40;10.23;;;1.48;;
22837;SDS011;11585;51.450;-0.240;2023-07-31T05:18:14;7.63;;;1.20;;
22837;SDS011;11585;51.450;-0.240;2023-07-31T05:20:40;3.97;;;1.02;;
22837;SDS011;11585;51.450;-0.240;2023-07-31T05:23:05;8.70;;;1.25;;
22837;SDS011;11585;51.450;-0.240;2023-07-31T05:25:33;9.15;;;1.95;;
22837;SDS011;11585;51.450;-0.240;2023-07-31T05:27:59;2.40;;;1.20;;
22837;SDS011;11585;51.450;-0.240;2023-07-31T05:30:25;5.50;;;1.40;;
22837;SDS011;11585;51.450;-0.240;2023-07-31T05:32:51;6.47;;;1.50;;
22837;SDS011;11585;51.450;-0.240;2023-07-31T05:38:04;6.93;;;1.42;;
22837;SDS011;11585;51.450;-0.240;2023-07-31T05:40:32;9.15;;;1.75;;
22837;SDS011;11585;51.450;-0.240;2023-07-31T05:42:58;3.45;;;1.40;;
22837;SDS011;11585;51.450;-0.240;2023-07-31T05:45:25;6.43;;;1.65;;
22837;SDS011;11585;51.450;-0.240;2023-07-31T05:47:51;3.70;;;1.52;;
22837;SDS011;11585;51.450;-0.240;2023-07-31T05:50:17;6.47;;;1.60;;
22837;SDS011;11585;51.450;-0.240;2023-07-31T05:52:43;6.70;;;1.55;;
22837;SDS011;11585;51.450;-0.240;2023-07-31T05:58:12;8.95;;;1.60;;
22837;SDS011;11585;51.450;-0.240;2023-07-31T06:00:38;7.88;;;2.00;;
22837;SDS011;11585;51.450;-0.240;2023-07-31T06:03:06;5.70;;;1.70;;
22837;SDS011;11585;51.450;-0.240;2023-07-31T06:08:54;8.05;;;2.20;;
22837;SDS011;11585;51.450;-0.240;2023-07-31T06:18:34;5.70;;;2.08;;
22837;SDS011;11585;51.450;-0.240;2023-07-31T06:21:00;13.85;;;2.03;;
22837;SDS011;11585;51.450;-0.240;2023-07-31T06:23:25;5.68;;;1.90;;
22837;SDS011;11585;51.450;-0.240;2023-07-31T06:25:53;3.63;;;1.75;;
22837;SDS011;11585;51.450;-0.240;2023-07-31T06:28:19;4.82;;;1.55;;
22837;SDS011;11585;51.450;-0.240;2023-07-31T06:30:44;3.85;;;1.70;;
22837;SDS011;11585;51.450;-0.240;2023-07-31T06:33:10;7.43;;;2.20;;
22837;SDS011;11585;51.450;-0.240;2023-07-31T06:38:24;6.43;;;2.00;;
22837;SDS011;11585;51.450;-0.240;2023-07-31T06:43:53;8.65;;;1.92;;
22837;SDS011;11585;51.450;-0.240;2023-07-31T06:49:10;9.52;;;1.52;;
22837;SDS011;11585;51.450;-0.240;2023-07-31T06:51:35;4.75;;;1.75;;
22837;SDS011;11585;51.450;-0.240;2023-07-31T06:54:10;7.43;;;1.88;;
22837;SDS011;11585;51.450;-0.240;2023-07-31T06:56:37;6.20;;;1.67;;
22837;SDS011;11585;51.450;-0.240;2023-07-31T06:59:03;3.55;;;1.40;;
22837;SDS011;11585;51.450;-0.240;2023-07-31T07:01:28;5.43;;;1.70;;
22837;SDS011;11585;51.450;-0.240;2023-07-31T07:03:54;7.47;;;1.70;;
22837;SDS011;11585;51.450;-0.240;2023-07-31T07:09:42;3.25;;;1.60;;
22837;SDS011;11585;51.450;-0.240;2023-07-31T07:12:08;5.88;;;1.60;;
22837;SDS011;11585;51.450;-0.240;2023-07-31T07:14:33;5.68;;;1.67;;
22837;SDS011;11585;51.450;-0.240;2023-07-31T07:16:59;7.38;;;2.72;;
22837;SDS011;11585;51.450;-0.240;2023-07-31T07:19:30;9.85;;;1.90;;
22837;SDS011;11585;51.450;-0.240;2023-07-31T07:22:14;6.38;;;1.65;;
22837;SDS011;11585;51.450;-0.240;2023-07-31T07:24:55;4.70;;;1.90;;
22837;SDS011;11585;51.450;-0.240;2023-07-31T07:27:21;5.88;;;1.63;;
22837;SDS011;11585;51.450;-0.240;2023-07-31T07:29:46;6.40;;;1.83;;
22837;SDS011;11585;51.450;-0.240;2023-07-31T07:32:12;6.10;;;2.03;;
22837;SDS011;11585;51.450;-0.240;2023-07-31T07:34:38;4.25;;;1.50;;
22837;SDS011;11585;51.450;-0.240;2023-07-31T07:37:03;6.38;;;1.70;;
22837;SDS011;11585;51.450;-0.240;2023-07-31T07:39:29;4.05;;;1.52;;
22837;SDS011;11585;51.450;-0.240;2023-07-31T07:41:55;3.65;;;1.58;;
22837;SDS011;11585;51.450;-0.240;2023-07-31T07:44:20;10.77;;;1.40;;
22837;SDS011;11585;51.450;-0.240;2023-07-31T07:46:47;3.45;;;1.70;;
22837;SDS011;11585;51.450;-0.240;2023-07-31T07:49:12;6.95;;;2.10;;
22837;SDS011;11585;51.450;-0.240;2023-07-31T07:51:38;7.03;;;2.58;;
22837;SDS011;11585;51.450;-0.240;2023-07-31T07:54:03;10.43;;;2.47;;
22837;SDS011;11585;51.450;-0.240;2023-07-31T07:59:15;8.07;;;1.80;;
22837;SDS011;11585;51.450;-0.240;2023-07-31T08:01:41;5.60;;;2.58;;
22837;SDS011;11585;51.450;-0.240;2023-07-31T08:04:07;6.15;;;2.20;;
22837;SDS011;11585;51.450;-0.240;2023-07-31T08:13:11;5.25;;;1.88;;
22837;SDS011;11585;51.450;-0.240;2023-07-31T08:15:37;7.22;;;2.20;;
22837;SDS011;11585;51.450;-0.240;2023-07-31T08:18:03;7.60;;;1.92;;
22837;SDS011;11585;51.450;-0.240;2023-07-31T08:20:28;2.83;;;1.50;;
22837;SDS011;11585;51.450;-0.240;2023-07-31T08:22:54;6.90;;;1.70;;
22837;SDS011;11585;51.450;-0.240;2023-07-31T08:25:20;3.80;;;1.60;;
22837;SDS011;11585;51.450;-0.240;2023-07-31T08:27:45;5.68;;;2.00;;
22837;SDS011;11585;51.450;-0.240;2023-07-31T08:30:11;5.15;;;1.63;;
22837;SDS011;11585;51.450;-0.240;2023-07-31T08:32:40;5.38;;;1.70;;
22837;SDS011;11585;51.450;-0.240;2023-07-31T08:35:07;7.00;;;1.75;;
22837;SDS011;11585;51.450;-0.240;2023-07-31T08:37:33;6.25;;;2.03;;
22837;SDS011;11585;51.450;-0.240;2023-07-31T08:39:58;5.18;;;1.65;;
22837;SDS011;11585;51.450;-0.240;2023-07-31T08:42:24;5.60;;;2.20;;
22837;SDS011;11585;51.450;-0.240;2023-07-31T08:53:48;3.75;;;1.70;;
22837;SDS011;11585;51.450;-0.240;2023-07-31T08:56:15;6.03;;;2.00;;
22837;SDS011;11585;51.450;-0.240;2023-07-31T08:58:42;5.20;;;1.80;;
22837;SDS011;11585;51.450;-0.240;2023-07-31T09:01:09;4.28;;;1.67;;
22837;SDS011;11585;51.450;-0.240;2023-07-31T09:03:35;7.13;;;1.67;;
22837;SDS011;11585;51.450;-0.240;2023-07-31T09:06:03;4.75;;;1.77;;
22837;SDS011;11585;51.450;-0.240;2023-07-31T09:08:31;7.05;;;2.13;;
22837;SDS011;11585;51.450;-0.240;2023-07-31T09:10:59;3.58;;;1.90;;
22837;SDS011;11585;51.450;-0.240;2023-07-31T09:13:28;9.07;;;2.20;;
22837;SDS011;11585;51.450;-0.240;2023-07-31T09:15:56;3.67;;;1.75;;
22837;SDS011;11585;51.450;-0.240;2023-07-31T09:18:22;4.60;;;1.88;;
22837;SDS011;11585;51.450;-0.240;2023-07-31T09:21:00;8.13;;;1.67;;
22837;SDS011;11585;51.450;-0.240;2023-07-31T09:23:27;8.80;;;1.95;;
22837;SDS011;11585;51.450;-0.240;2023-07-31T09:28:31;2.80;;;1.40;;
22837;SDS011;11585;51.450;-0.240;2023-07-31T09:30:57;3.13;;;1.52;;
22837;SDS011;11585;51.450;-0.240;2023-07-31T09:33:22;5.63;;;1.95;;
22837;SDS011;11585;51.450;-0.240;2023-07-31T09:38:55;5.70;;;1.48;;
22837;SDS011;11585;51.450;-0.240;2023-07-31T09:41:26;2.38;;;1.50;;
22837;SDS011;11585;51.450;-0.240;2023-07-31T09:43:55;2.92;;;1.30;;
22837;SDS011;11585;51.450;-0.240;2023-07-31T09:51:35;3.58;;;1.52;;
22837;SDS011;11585;51.450;-0.240;2023-07-31T09:56:35;2.35;;;1.20;;
22837;SDS011;11585;51.450;-0.240;2023-07-31T09:59:01;4.87;;;1.50;;
22837;SDS011;11585;51.450;-0.240;2023-07-31T10:01:29;3.05;;;1.20;;
22837;SDS011;11585;51.450;-0.240;2023-07-31T10:03:58;5.22;;;1.60;;
22837;SDS011;11585;51.450;-0.240;2023-07-31T10:06:24;7.13;;;2.50;;
22837;SDS011;11585;51.450;-0.240;2023-07-31T10:08:51;7.22;;;1.67;;
22837;SDS011;11585;51.450;-0.240;2023-07-31T10:11:17;3.00;;;1.60;;
22837;SDS011;11585;51.450;-0.240;2023-07-31T10:13:43;13.27;;;3.97;;
22837;SDS011;11585;51.450;-0.240;2023-07-31T10:16:10;20.83;;;2.03;;
22837;SDS011;11585;51.450;-0.240;2023-07-31T10:18:41;4.05;;;2.20;;
22837;SDS011;11585;51.450;-0.240;2023-07-31T10:21:08;4.57;;;1.60;;
22837;SDS011;11585;51.450;-0.240;2023-07-31T10:23:34;4.80;;;1.95;;
22837;SDS011;11585;51.450;-0.240;2023-07-31T10:26:02;2.33;;;1.17;;
22837;SDS011;11585;51.450;-0.240;2023-07-31T10:28:29;1.95;;;1.40;;
22837;SDS011;11585;51.450;-0.240;2023-07-31T10:30:56;4.68;;;1.73;;
22837;SDS011;11585;51.450;-0.240;2023-07-31T10:33:22;2.63;;;1.33;;
22837;SDS011;11585;51.450;-0.240;2023-07-31T10:35:48;17.23;;;5.65;;
22837;SDS011;11585;51.450;-0.240;2023-07-31T10:38:14;3.17;;;1.58;;
22837;SDS011;11585;51.450;-0.240;2023-07-31T10:40:39;7.43;;;1.70;;
22837;SDS011;11585;51.450;-0.240;2023-07-31T10:43:06;9.20;;;3.03;;
22837;SDS011;11585;51.450;-0.240;2023-07-31T10:45:34;19.25;;;5.88;;
22837;SDS011;11585;51.450;-0.240;2023-07-31T10:48:17;5.55;;;2.10;;
22837;SDS011;11585;51.450;-0.240;2023-07-31T10:50:50;3.75;;;1.27;;
22837;SDS011;11585;51.450;-0.240;2023-07-31T10:53:23;7.15;;;2.58;;
22837;SDS011;11585;51.450;-0.240;2023-07-31T10:55:51;7.20;;;1.83;;
22837;SDS011;11585;51.450;-0.240;2023-07-31T10:58:18;3.95;;;1.80;;
22837;SDS011;11585;51.450;-0.240;2023-07-31T11:00:45;6.20;;;3.27;;
22837;SDS011;11585;51.450;-0.240;2023-07-31T11:03:13;7.35;;;2.60;;
22837;SDS011;11585;51.450;-0.240;2023-07-31T11:10:41;6.10;;;1.70;;
22837;SDS011;11585;51.450;-0.240;2023-07-31T11:13:08;3.53;;;1.67;;
22837;SDS011;11585;51.450;-0.240;2023-07-31T11:18:19;14.25;;;3.65;;
22837;SDS011;11585;51.450;-0.240;2023-07-31T11:20:48;10.55;;;2.90;;
22837;SDS011;11585;51.450;-0.240;2023-07-31T11:23:15;6.30;;;2.55;;
22837;SDS011;11585;51.450;-0.240;2023-07-31T11:25:45;7.22;;;2.40;;
22837;SDS011;11585;51.450;-0.240;2023-07-31T11:28:12;12.90;;;3.35;;
22837;SDS011;11585;51.450;-0.240;2023-07-31T11:30:39;7.18;;;2.53;;
22837;SDS011;11585;51.450;-0.240;2023-07-31T11:33:06;7.68;;;2.53;;
22837;SDS011;11585;51.450;-0.240;2023-07-31T11:40:52;8.88;;;3.15;;
22837;SDS011;11585;51.450;-0.240;2023-07-31T11:43:19;10.82;;;2.50;;
22837;SDS011;11585;51.450;-0.240;2023-07-31T11:45:51;5.53;;;2.30;;
22837;SDS011;11585;51.450;-0.240;2023-07-31T11:48:21;5.63;;;2.50;;
22837;SDS011;11585;51.450;-0.240;2023-07-31T11:50:49;8.75;;;2.97;;
22837;SDS011;11585;51.450;-0.240;2023-07-31T11:53:16;13.07;;;3.53;;
22837;SDS011;11585;51.450;-0.240;2023-07-31T11:58:11;7.38;;;2.60;;
22837;SDS011;11585;51.450;-0.240;2023-07-31T12:00:38;5.40;;;2.58;;
22837;SDS011;11585;51.450;-0.240;2023-07-31T12:03:04;7.25;;;2.78;;
22837;SDS011;11585;51.450;-0.240;2023-07-31T12:05:30;6.88;;;2.70;;
22837;SDS011;11585;51.450;-0.240;2023-07-31T12:07:55;6.80;;;2.67;;
22837;SDS011;11585;51.450;-0.240;2023-07-31T12:10:28;8.43;;;2.90;;
22837;SDS011;11585;51.450;-0.240;2023-07-31T12:13:02;7.50;;;2.20;;
22837;SDS011;11585;51.450;-0.240;2023-07-31T12:15:32;7.53;;;2.53;;
22837;SDS011;11585;51.450;-0.240;2023-07-31T12:17:58;10.57;;;2.70;;
22837;SDS011;11585;51.450;-0.240;2023-07-31T12:20:24;4.45;;;1.92;;
22837;SDS011;11585;51.450;-0.240;2023-07-31T12:22:51;7.25;;;2.85;;
22837;SDS011;11585;51.450;-0.240;2023-07-31T12:28:04;7.20;;;2.75;;
22837;SDS011;11585;51.450;-0.240;2023-07-31T12:30:32;7.80;;;2.65;;
22837;SDS011;11585;51.450;-0.240;2023-07-31T12:33:12;13.68;;;3.72;;
22837;SDS011;11585;51.450;-0.240;2023-07-31T12:38:43;16.10;;;4.10;;
22837;SDS011;11585;51.450;-0.240;2023-07-31T12:41:10;8.57;;;2.80;;
22837;SDS011;11585;51.450;-0.240;2023-07-31T12:43:38;9.05;;;3.03;;
22837;SDS011;11585;51.450;-0.240;2023-07-31T12:46:08;10.93;;;3.00;;
22837;SDS011;11585;51.450;-0.240;2023-07-31T12:48:34;16.13;;;5.03;;
22837;SDS011;11585;51.450;-0.240;2023-07-31T12:51:01;12.18;;;2.70;;
22837;SDS011;11585;51.450;-0.240;2023-07-31T12:53:27;16.55;;;4.07;;
22837;SDS011;11585;51.450;-0.240;2023-07-31T12:58:39;10.23;;;3.65;;
22837;SDS011;11585;51.450;-0.240;2023-07-31T13:01:05;8.93;;;3.40;;
22837;SDS011;11585;51.450;-0.240;2023-07-31T13:03:31;10.63;;;3.35;;
22837;SDS011;11585;51.450;-0.240;2023-07-31T13:06:00;12.07;;;3.40;;
22837;SDS011;11585;51.450;-0.240;2023-07-31T13:08:28;8.93;;;3.50;;
22837;SDS011;11585;51.450;-0.240;2023-07-31T13:10:54;12.45;;;4.03;;
22837;SDS011;11585;51.450;-0.240;2023-07-31T13:13:20;16.50;;;4.25;;
22837;SDS011;11585;51.450;-0.240;2023-07-31T13:15:48;9.90;;;3.67;;
22837;SDS011;11585;51.450;-0.240;2023-07-31T13:18:23;16.08;;;5.43;;
22837;SDS011;11585;51.450;-0.240;2023-07-31T13:20:52;11.60;;;3.85;;
22837;SDS011;11585;51.450;-0.240;2023-07-31T13:47:47;9.15;;;4.55;;
22837;SDS011;11585;51.450;-0.240;2023-07-31T13:50:36;21.33;;;4.72;;
22837;SDS011;11585;51.450;-0.240;2023-07-31T13:53:02;15.93;;;4.75;;
22837;SDS011;11585;51.450;-0.240;2023-07-31T13:58:49;14.55;;;4.72;;
22837;SDS011;11585;51.450;-0.240;2023-07-31T14:01:17;16.38;;;5.05;;
22837;SDS011;11585;51.450;-0.240;2023-07-31T14:03:42;13.18;;;4.40;;
22837;SDS011;11585;51.450;-0.240;2023-07-31T14:08:53;16.95;;;4.90;;
22837;SDS011;11585;51.450;-0.240;2023-07-31T14:11:20;13.88;;;4.78;;
22837;SDS011;11585;51.450;-0.240;2023-07-31T14:13:46;16.45;;;5.55;;
22837;SDS011;11585;51.450;-0.240;2023-07-31T14:16:13;11.88;;;4.53;;
22837;SDS011;11585;51.450;-0.240;2023-07-31T14:18:41;16.23;;;4.90;;
22837;SDS011;11585;51.450;-0.240;2023-07-31T14:21:07;22.13;;;7.40;;
22837;SDS011;11585;51.450;-0.240;2023-07-31T14:23:33;19.05;;;4.82;;
22837;SDS011;11585;51.450;-0.240;2023-07-31T14:28:29;51.05;;;12.38;;
22837;SDS011;11585;51.450;-0.240;2023-07-31T14:30:55;16.27;;;6.05;;
22837;SDS011;11585;51.450;-0.240;2023-07-31T14:33:20;20.10;;;5.88;;
22837;SDS011;11585;51.450;-0.240;2023-07-31T14:35:48;15.07;;;5.35;;
22837;SDS011;11585;51.450;-0.240;2023-07-31T14:38:14;10.60;;;5.15;;
22837;SDS011;11585;51.450;-0.240;2023-07-31T14:40:40;20.45;;;5.18;;
22837;SDS011;11585;51.450;-0.240;2023-07-31T14:43:06;13.43;;;5.15;;
22837;SDS011;11585;51.450;-0.240;2023-07-31T14:45:34;12.85;;;5.25;;
22837;SDS011;11585;51.450;-0.240;2023-07-31T14:48:00;13.57;;;4.97;;
22837;SDS011;11585;51.450;-0.240;2023-07-31T14:50:26;20.58;;;7.47;;
22837;SDS011;11585;51.450;-0.240;2023-07-31T14:52:51;21.60;;;5.53;;
22837;SDS011;11585;51.450;-0.240;2023-07-31T14:55:21;14.25;;;5.50;;
22837;SDS011;11585;51.450;-0.240;2023-07-31T14:57:47;17.70;;;5.40;;
22837;SDS011;11585;51.450;-0.240;2023-07-31T15:00:13;21.55;;;6.35;;
22837;SDS011;11585;51.450;-0.240;2023-07-31T15:02:39;14.43;;;5.10;;
22837;SDS011;11585;51.450;-0.240;2023-07-31T15:08:10;13.25;;;6.10;;
22837;SDS011;11585;51.450;-0.240;2023-07-31T15:10:35;12.43;;;5.47;;
22837;SDS011;11585;51.450;-0.240;2023-07-31T15:13:01;14.07;;;6.25;;
22837;SDS011;11585;51.450;-0.240;2023-07-31T15:15:28;18.60;;;5.88;;
22837;SDS011;11585;51.450;-0.240;2023-07-31T15:17:53;10.57;;;4.57;;
22837;SDS011;11585;51.450;-0.240;2023-07-31T15:20:20;12.82;;;5.78;;
22837;SDS011;11585;51.450;-0.240;2023-07-31T15:22:46;15.43;;;4.80;;
22837;SDS011;11585;51.450;-0.240;2023-07-31T15:25:12;22.25;;;5.53;;
22837;SDS011;11585;51.450;-0.240;2023-07-31T15:27:38;8.38;;;4.07;;
22837;SDS011;11585;51.450;-0.240;2023-07-31T15:30:04;11.98;;;4.30;;
22837;SDS011;11585;51.450;-0.240;2023-07-31T15:32:30;12.73;;;4.45;;
22837;SDS011;11585;51.450;-0.240;2023-07-31T15:34:57;13.73;;;4.18;;
22837;SDS011;11585;51.450;-0.240;2023-07-31T15:37:23;12.15;;;3.83;;
22837;SDS011;11585;51.450;-0.240;2023-07-31T15:39:49;12.77;;;3.63;;
22837;SDS011;11585;51.450;-0.240;2023-07-31T15:42:14;11.05;;;3.38;;
22837;SDS011;11585;51.450;-0.240;2023-07-31T15:44:40;10.52;;;3.55;;
22837;SDS011;11585;51.450;-0.240;2023-07-31T15:47:06;8.73;;;3.38;;
22837;SDS011;11585;51.450;-0.240;2023-07-31T15:49:31;9.27;;;3.58;;
22837;SDS011;11585;51.450;-0.240;2023-07-31T15:51:57;11.15;;;3.58;;
22837;SDS011;11585;51.450;-0.240;2023-07-31T15:54:23;7.38;;;3.33;;
22837;SDS011;11585;51.450;-0.240;2023-07-31T15:56:48;9.02;;;2.97;;
22837;SDS011;11585;51.450;-0.240;2023-07-31T15:59:14;10.60;;;3.80;;
22837;SDS011;11585;51.450;-0.240;2023-07-31T16:01:40;7.00;;;3.45;;
22837;SDS011;11585;51.450;-0.240;2023-07-31T16:04:05;10.35;;;4.63;;
22837;SDS011;11585;51.450;-0.240;2023-07-31T16:08:59;9.35;;;3.75;;
22837;SDS011;11585;51.450;-0.240;2023-07-31T16:11:26;7.50;;;2.95;;
22837;SDS011;11585;51.450;-0.240;2023-07-31T16:13:52;7.85;;;3.55;;
22837;SDS011;11585;51.450;-0.240;2023-07-31T16:16:17;10.23;;;3.28;;
22837;SDS011;11585;51.450;-0.240;2023-07-31T16:18:45;13.25;;;4.00;;
22837;SDS011;11585;51.450;-0.240;2023-07-31T16:21:10;9.98;;;3.55;;
22837;SDS011;11585;51.450;-0.240;2023-07-31T16:23:36;17.17;;;5.15;;
22837;SDS011;11585;51.450;-0.240;2023-07-31T16:26:01;10.80;;;4.28;;
22837;SDS011;11585;51.450;-0.240;2023-07-31T16:28:27;10.30;;;3.03;;
22837;SDS011;11585;51.450;-0.240;2023-07-31T16:30:53;10.85;;;3.40;;
22837;SDS011;11585;51.450;-0.240;2023-07-31T16:33:18;11.65;;;3.92;;
22837;SDS011;11585;51.450;-0.240;2023-07-31T16:38:29;11.77;;;4.00;;
22837;SDS011;11585;51.450;-0.240;2023-07-31T16:40:54;14.15;;;3.72;;
22837;SDS011;11585;51.450;-0.240;2023-07-31T16:43:20;10.32;;;3.47;;
22837;SDS011;11585;51.450;-0.240;2023-07-31T16:45:48;18.05;;;5.82;;
22837;SDS011;11585;51.450;-0.240;2023-07-31T16:48:14;13.90;;;4.38;;
22837;SDS011;11585;51.450;-0.240;2023-07-31T16:50:42;22.20;;;6.38;;
22837;SDS011;11585;51.450;-0.240;2023-07-31T16:53:08;12.38;;;3.83;;
22837;SDS011;11585;51.450;-0.240;2023-07-31T16:55:34;12.52;;;3.72;;
22837;SDS011;11585;51.450;-0.240;2023-07-31T16:58:00;9.85;;;3.58;;
22837;SDS011;11585;51.450;-0.240;2023-07-31T17:00:27;14.23;;;4.07;;
22837;SDS011;11585;51.450;-0.240;2023-07-31T17:02:53;12.38;;;3.58;;
22837;SDS011;11585;51.450;-0.240;2023-07-31T17:08:40;10.43;;;3.22;;
22837;SDS011;11585;51.450;-0.240;2023-07-31T17:14:28;6.65;;;3.25;;
22837;SDS011;11585;51.450;-0.240;2023-07-31T17:20:11;10.98;;;4.00;;
22837;SDS011;11585;51.450;-0.240;2023-07-31T17:22:37;6.15;;;3.35;;
22837;SDS011;11585;51.450;-0.240;2023-07-31T17:28:27;7.80;;;3.30;;
22837;SDS011;11585;51.450;-0.240;2023-07-31T17:30:53;10.52;;;3.42;;
22837;SDS011;11585;51.450;-0.240;2023-07-31T17:33:18;9.32;;;3.53;;
22837;SDS011;11585;51.450;-0.240;2023-07-31T17:39:06;7.65;;;3.15;;
22837;SDS011;11585;51.450;-0.240;2023-07-31T17:41:49;12.98;;;3.75;;
22837;SDS011;11585;51.450;-0.240;2023-07-31T17:47:22;7.82;;;4.18;;
22837;SDS011;11585;51.450;-0.240;2023-07-31T17:49:47;11.48;;;4.38;;
22837;SDS011;11585;51.450;-0.240;2023-07-31T17:52:13;9.13;;;3.50;;
22837;SDS011;11585;51.450;-0.240;2023-07-31T17:59:13;8.90;;;3.10;;
22837;SDS011;11585;51.450;-0.240;2023-07-31T18:01:46;9.52;;;3.53;;
22837;SDS011;11585;51.450;-0.240;2023-07-31T18:04:13;8.70;;;3.28;;
22837;SDS011;11585;51.450;-0.240;2023-07-31T18:10:01;7.47;;;3.30;;
22837;SDS011;11585;51.450;-0.240;2023-07-31T18:12:27;12.18;;;3.90;;
22837;SDS011;11585;51.450;-0.240;2023-07-31T18:15:04;9.55;;;3.42;;
22837;SDS011;11585;51.450;-0.240;2023-07-31T18:17:38;10.50;;;3.83;;
22837;SDS011;11585;51.450;-0.240;2023-07-31T18:20:04;10.30;;;4.00;;
22837;SDS011;11585;51.450;-0.240;2023-07-31T18:22:32;9.48;;;3.75;;
22837;SDS011;11585;51.450;-0.240;2023-07-31T18:27:43;8.95;;;3.30;;
22837;SDS011;11585;51.450;-0.240;2023-07-31T18:30:09;8.75;;;3.00;;
22837;SDS011;11585;51.450;-0.240;2023-07-31T18:32:34;6.60;;;3.55;;
22837;SDS011;11585;51.450;-0.240;2023-07-31T18:41:46;14.13;;;4.18;;
22837;SDS011;11585;51.450;-0.240;2023-07-31T18:47:16;8.05;;;3.58;;
22837;SDS011;11585;51.450;-0.240;2023-07-31T18:49:42;9.23;;;3.42;;
22837;SDS011;11585;51.450;-0.240;2023-07-31T18:52:08;9.63;;;3.53;;
22837;SDS011;11585;51.450;-0.240;2023-07-31T18:54:33;8.75;;;4.85;;
22837;SDS011;11585;51.450;-0.240;2023-07-31T19:00:21;6.57;;;3.17;;
22837;SDS011;11585;51.450;-0.240;2023-07-31T19:02:46;9.65;;;3.05;;
22837;SDS011;11585;51.450;-0.240;2023-07-31T19:11:04;7.18;;;3.35;;
22837;SDS011;11585;51.450;-0.240;2023-07-31T19:13:30;17.63;;;5.40;;
22837;SDS011;11585;51.450;-0.240;2023-07-31T19:18:58;8.05;;;3.15;;
22837;SDS011;11585;51.450;-0.240;2023-07-31T19:21:24;7.03;;;3.28;;
22837;SDS011;11585;51.450;-0.240;2023-07-31T19:23:50;7.28;;;3.30;;
22837;SDS011;11585;51.450;-0.240;2023-07-31T19:29:38;7.90;;;3.10;;
22837;SDS011;11585;51.450;-0.240;2023-07-31T19:32:03;20.73;;;6.40;;
22837;SDS011;11585;51.450;-0.240;2023-07-31T19:34:29;8.20;;;3.30;;
22837;SDS011;11585;51.450;-0.240;2023-07-31T19:40:20;7.80;;;3.03;;
22837;SDS011;11585;51.450;-0.240;2023-07-31T19:42:50;14.35;;;3.58;;
22837;SDS011;11585;51.450;-0.240;2023-07-31T19:48:02;10.80;;;3.67;;
22837;SDS011;11585;51.450;-0.240;2023-07-31T19:50:28;9.45;;;3.50;;
22837;SDS011;11585;51.450;-0.240;2023-07-31T19:52:53;9.27;;;3.45;;
22837;SDS011;11585;51.450;-0.240;2023-07-31T20:01:36;10.82;;;3.65;;
22837;SDS011;11585;51.450;-0.240;2023-07-31T20:04:02;10.60;;;3.45;;
22837;SDS011;11585;51.450;-0.240;2023-07-31T20:09:35;12.45;;;4.40;;
22837;SDS011;11585;51.450;-0.240;2023-07-31T20:12:01;4.85;;;2.63;;
22837;SDS011;11585;51.450;-0.240;2023-07-31T20:14:27;11.60;;;3.30;;
22837;SDS011;11585;51.450;-0.240;2023-07-31T20:19:59;8.73;;;3.55;;
22837;SDS011;11585;51.450;-0.240;2023-07-31T20:22:25;18.05;;;5.40;;
22837;SDS011;11585;51.450;-0.240;2023-07-31T20:24:50;8.35;;;3.70;;
22837;SDS011;11585;51.450;-0.240;2023-07-31T20:27:18;7.82;;;3.65;;
22837;SDS011;11585;51.450;-0.240;2023-07-31T20:29:47;11.15;;;4.38;;
22837;SDS011;11585;51.450;-0.240;2023-07-31T20:32:12;10.85;;;3.42;;
22837;SDS011;11585;51.450;-0.240;2023-07-31T20:34:38;7.55;;;3.72;;
22837;SDS011;11585;51.450;-0.240;2023-07-31T20:40:26;8.93;;;3.70;;
22837;SDS011;11585;51.450;-0.240;2023-07-31T20:42:55;13.90;;;5.13;;
22837;SDS011;11585;51.450;-0.240;2023-07-31T20:48:44;8.88;;;3.72;;
22837;SDS011;11585;51.450;-0.240;2023-07-31T20:51:12;12.32;;;3.55;;
22837;SDS011;11585;51.450;-0.240;2023-07-31T20:53:57;12.05;;;4.47;;
22837;SDS011;11585;51.450;-0.240;2023-07-31T20:59:09;14.63;;;4.55;;
22837;SDS011;11585;51.450;-0.240;2023-07-31T21:01:35;14.68;;;4.22;;
22837;SDS011;11585;51.450;-0.240;2023-07-31T21:04:00;9.38;;;3.40;;
22837;SDS011;11585;51.450;-0.240;2023-07-31T21:09:33;6.47;;;2.92;;